Time;durP1;ratioP1;P1;durP2;ratioP2;P2;SDS_P1;SDS_P2;PMS_P1;PMS_P2;Temp;Humidity;BMP_temperature;BMP_pressure;BME280_temperature;BME280_humidity;BME280_pressure;Samples;Min_cycle;Max_cycle;Signal;HPM_P1;HPM_P2
2023/07/26 00:00:36;;;;;;;4.40;2.97;;;;;;;;;;5071660;28;20706;-56
2023/07/26 00:03:02;;;;;;;3.53;2.90;;;;;;;;;;5071227;28;20283;-56
2023/07/26 00:05:30;;;;;;;7.13;2.97;;;;;;;;;;5071062;28;20623;-55
2023/07/26 00:07:57;;;;;;;5.03;2.80;;;;;;;;;;5071455;28;20199;-56
2023/07/26 00:10:23;;;;;;;4.00;2.90;;;;;;;;;;5072535;28;20396;-56
2023/07/26 00:12:49;;;;;;;4.30;2.70;;;;;;;;;;5075451;28;20741;-56
2023/07/26 00:15:16;;;;;;;6.00;3.40;;;;;;;;;;5075371;28;20350;-56
2023/07/26 00:17:42;;;;;;;6.50;3.37;;;;;;;;;;5075199;28;20274;-56
2023/07/26 00:20:08;;;;;;;4.00;2.70;;;;;;;;;;5073437;28;20191;-55
2023/07/26 00:22:34;;;;;;;3.43;2.70;;;;;;;;;;5073954;28;20203;-55
2023/07/26 00:25:02;;;;;;;2.80;2.40;;;;;;;;;;5075395;28;20195;-58
2023/07/26 00:27:28;;;;;;;2.90;2.60;;;;;;;;;;5075312;28;20565;-56
2023/07/26 00:29:54;;;;;;;4.57;2.60;;;;;;;;;;5075271;28;20671;-58
2023/07/26 00:32:20;;;;;;;4.30;3.00;;;;;;;;;;5075032;28;20199;-59
2023/07/26 00:34:46;;;;;;;3.30;3.00;;;;;;;;;;5075153;28;20609;-59
2023/07/26 00:37:12;;;;;;;4.50;2.90;;;;;;;;;;5075049;28;20229;-59
2023/07/26 00:39:38;;;;;;;4.77;3.00;;;;;;;;;;5075222;28;20195;-60
2023/07/26 00:42:06;;;;;;;5.33;2.70;;;;;;;;;;5075023;28;20241;-59
2023/07/26 00:44:32;;;;;;;3.60;3.00;;;;;;;;;;5074571;28;20224;-59
2023/07/26 00:46:58;;;;;;;3.87;3.20;;;;;;;;;;5074805;28;20203;-59
2023/07/26 00:49:24;;;;;;;2.90;2.70;;;;;;;;;;5074635;28;20195;-59
2023/07/26 00:51:50;;;;;;;5.57;3.40;;;;;;;;;;5074580;28;20596;-59
2023/07/26 00:54:18;;;;;;;3.43;2.50;;;;;;;;;;5074564;28;20199;-59
2023/07/26 00:56:44;;;;;;;2.67;2.40;;;;;;;;;;5074430;28;20245;-59
2023/07/26 00:59:12;;;;;;;5.30;3.17;;;;;;;;;;5074487;28;20200;-59
2023/07/26 01:01:39;;;;;;;3.30;2.50;;;;;;;;;;5074557;28;20196;-59
2023/07/26 01:04:05;;;;;;;4.60;2.67;;;;;;;;;;5074174;28;20720;-59
2023/07/26 01:06:35;;;;;;;3.30;3.00;;;;;;;;;;5074019;28;20241;-58
2023/07/26 01:09:04;;;;;;;4.10;2.70;;;;;;;;;;5074244;28;20210;-59
2023/07/26 01:11:34;;;;;;;3.63;2.80;;;;;;;;;;5074052;28;20277;-58
2023/07/26 01:14:06;;;;;;;3.70;2.60;;;;;;;;;;5074185;28;20204;-58
2023/07/26 01:16:34;;;;;;;4.10;2.87;;;;;;;;;;5074190;28;20235;-58
2023/07/26 01:19:00;;;;;;;4.33;2.80;;;;;;;;;;5074057;28;20188;-59
2023/07/26 01:21:30;;;;;;;3.17;2.60;;;;;;;;;;5073548;28;20223;-59
2023/07/26 01:23:56;;;;;;;4.70;3.00;;;;;;;;;;5074141;28;20204;-59
2023/07/26 01:26:22;;;;;;;4.83;2.73;;;;;;;;;;5073937;28;20597;-59
2023/07/26 01:28:48;;;;;;;6.97;3.10;;;;;;;;;;5074078;28;20282;-59
2023/07/26 01:31:15;;;;;;;3.17;2.70;;;;;;;;;;5073778;28;20262;-58
2023/07/26 01:33:42;;;;;;;2.77;2.40;;;;;;;;;;5073921;28;20245;-59
2023/07/26 01:36:08;;;;;;;3.53;2.57;;;;;;;;;;5073876;28;20203;-59
2023/07/26 01:38:35;;;;;;;5.60;2.60;;;;;;;;;;5073707;28;20196;-60
2023/07/26 01:41:02;;;;;;;2.67;2.33;;;;;;;;;;5073718;28;20709;-60
2023/07/26 01:43:28;;;;;;;4.30;2.70;;;;;;;;;;5073555;28;20239;-60
2023/07/26 01:45:54;;;;;;;2.77;2.37;;;;;;;;;;5073898;28;20192;-58
2023/07/26 01:48:20;;;;;;;3.43;2.63;;;;;;;;;;5073420;28;20207;-58
2023/07/26 01:50:46;;;;;;;3.93;3.00;;;;;;;;;;5073455;28;20251;-59
2023/07/26 01:53:12;;;;;;;4.37;2.67;;;;;;;;;;5073434;28;20196;-58
2023/07/26 01:55:39;;;;;;;3.23;2.60;;;;;;;;;;5073611;28;20199;-58
2023/07/26 01:58:05;;;;;;;7.00;2.67;;;;;;;;;;5073343;28;20206;-58
2023/07/26 02:00:31;;;;;;;3.57;2.53;;;;;;;;;;5073182;28;20221;-58
2023/07/26 02:02:57;;;;;;;4.17;2.73;;;;;;;;;;5073246;28;20202;-59
2023/07/26 02:05:24;;;;;;;3.40;2.77;;;;;;;;;;5073226;28;20216;-58
2023/07/26 02:07:50;;;;;;;4.37;2.90;;;;;;;;;;5072930;28;20257;-58
2023/07/26 02:10:16;;;;;;;3.40;2.93;;;;;;;;;;5072121;28;20223;-60
2023/07/26 02:12:44;;;;;;;3.30;2.80;;;;;;;;;;5072717;28;20573;-58
2023/07/26 02:15:10;;;;;;;5.13;2.80;;;;;;;;;;5073272;28;20303;-57
2023/07/26 02:17:36;;;;;;;3.67;2.70;;;;;;;;;;5073288;28;20230;-58
2023/07/26 02:20:04;;;;;;;3.27;2.87;;;;;;;;;;5072865;28;20226;-60
2023/07/26 02:22:30;;;;;;;3.87;3.00;;;;;;;;;;5072784;28;20613;-58
2023/07/26 02:24:56;;;;;;;3.60;2.73;;;;;;;;;;5072963;28;20200;-58
2023/07/26 02:27:22;;;;;;;5.57;2.90;;;;;;;;;;5073003;28;20581;-58
2023/07/26 02:29:49;;;;;;;5.50;3.00;;;;;;;;;;5072817;28;20201;-58
2023/07/26 02:32:15;;;;;;;4.40;3.17;;;;;;;;;;5072143;28;20195;-58
2023/07/26 02:34:41;;;;;;;2.67;2.37;;;;;;;;;;5072427;28;20203;-58
2023/07/26 02:37:07;;;;;;;3.43;2.70;;;;;;;;;;5072658;28;20215;-59
2023/07/26 02:39:33;;;;;;;5.63;2.80;;;;;;;;;;5072574;28;20265;-59
2023/07/26 02:41:59;;;;;;;4.73;2.97;;;;;;;;;;5072431;28;20613;-59
2023/07/26 02:44:26;;;;;;;3.37;2.70;;;;;;;;;;5072480;28;20243;-58
2023/07/26 02:46:53;;;;;;;3.33;2.33;;;;;;;;;;5072511;28;20673;-59
2023/07/26 02:49:19;;;;;;;4.10;2.40;;;;;;;;;;5072273;28;20290;-59
2023/07/26 02:51:45;;;;;;;4.20;2.77;;;;;;;;;;5072333;28;20319;-59
2023/07/26 02:54:11;;;;;;;3.23;2.87;;;;;;;;;;5072341;28;20219;-58
2023/07/26 02:56:37;;;;;;;4.47;3.10;;;;;;;;;;5072195;28;20195;-59
2023/07/26 02:59:03;;;;;;;6.13;3.20;;;;;;;;;;5072121;28;20195;-58
2023/07/26 03:01:29;;;;;;;3.27;2.73;;;;;;;;;;5072104;28;20203;-59
2023/07/26 03:03:56;;;;;;;3.77;3.20;;;;;;;;;;5072229;28;20200;-58
2023/07/26 03:06:22;;;;;;;4.20;2.70;;;;;;;;;;5071986;28;20736;-58
2023/07/26 03:08:49;;;;;;;3.63;2.73;;;;;;;;;;5072205;28;20199;-59
2023/07/26 03:11:15;;;;;;;3.70;2.80;;;;;;;;;;5071823;28;20238;-59
2023/07/26 03:13:41;;;;;;;4.27;3.00;;;;;;;;;;5072035;28;20658;-58
2023/07/26 03:16:07;;;;;;;3.40;3.07;;;;;;;;;;5071954;28;20191;-59
2023/07/26 03:18:33;;;;;;;5.63;3.33;;;;;;;;;;5071750;28;20211;-59
2023/07/26 03:21:00;;;;;;;6.30;2.80;;;;;;;;;;5071833;28;20541;-58
2023/07/26 03:23:26;;;;;;;5.37;3.37;;;;;;;;;;5071766;28;20611;-58
2023/07/26 03:25:52;;;;;;;4.30;3.27;;;;;;;;;;5071837;28;20200;-58
2023/07/26 03:28:18;;;;;;;4.17;3.40;;;;;;;;;;5071669;28;20650;-58
2023/07/26 03:30:44;;;;;;;4.67;3.20;;;;;;;;;;5071661;28;20263;-59
2023/07/26 03:33:10;;;;;;;6.27;3.50;;;;;;;;;;5071625;28;20654;-59
2023/07/26 03:35:36;;;;;;;3.53;3.20;;;;;;;;;;5071838;28;20202;-58
2023/07/26 03:38:04;;;;;;;7.47;3.53;;;;;;;;;;5071683;28;20203;-59
2023/07/26 03:40:30;;;;;;;4.27;3.50;;;;;;;;;;5071345;28;20196;-59
2023/07/26 03:42:56;;;;;;;5.67;3.50;;;;;;;;;;5071377;28;20240;-59
2023/07/26 03:45:22;;;;;;;6.87;3.30;;;;;;;;;;5070559;28;20199;-59
2023/07/26 03:47:48;;;;;;;4.90;3.30;;;;;;;;;;5071390;28;20634;-59
2023/07/26 03:50:14;;;;;;;4.97;3.30;;;;;;;;;;5071697;28;20686;-59
2023/07/26 03:52:40;;;;;;;5.83;3.53;;;;;;;;;;5071612;28;20676;-60
2023/07/26 03:55:08;;;;;;;6.93;3.83;;;;;;;;;;5071087;28;20199;-61
2023/07/26 03:57:34;;;;;;;7.23;3.23;;;;;;;;;;5071492;28;20203;-59
2023/07/26 04:00:00;;;;;;;6.70;3.83;;;;;;;;;;5071530;28;20226;-60
2023/07/26 04:02:26;;;;;;;5.10;3.20;;;;;;;;;;5071474;28;20195;-60
2023/07/26 04:04:52;;;;;;;6.20;3.77;;;;;;;;;;5071626;28;20307;-60
2023/07/26 04:07:18;;;;;;;3.43;3.10;;;;;;;;;;5071346;28;20280;-60
2023/07/26 04:09:44;;;;;;;4.60;3.20;;;;;;;;;;5071318;28;20555;-60
2023/07/26 04:12:12;;;;;;;3.87;3.03;;;;;;;;;;5071312;28;20718;-60
2023/07/26 04:14:38;;;;;;;6.33;3.53;;;;;;;;;;5071663;28;20207;-61
2023/07/26 04:17:04;;;;;;;4.73;3.83;;;;;;;;;;5071434;28;20222;-60
2023/07/26 04:19:30;;;;;;;4.33;3.40;;;;;;;;;;5071296;28;20207;-60
2023/07/26 04:21:56;;;;;;;5.33;3.80;;;;;;;;;;5071552;28;20232;-60
2023/07/26 04:24:22;;;;;;;5.37;3.97;;;;;;;;;;5071143;28;20264;-60
2023/07/26 04:26:48;;;;;;;4.07;3.53;;;;;;;;;;5071272;28;20191;-60
2023/07/26 04:29:15;;;;;;;4.37;3.77;;;;;;;;;;5071129;28;20574;-58
2023/07/26 04:31:41;;;;;;;4.13;3.73;;;;;;;;;;5071092;28;20234;-61
2023/07/26 04:34:07;;;;;;;6.83;3.80;;;;;;;;;;5071178;28;20192;-60
2023/07/26 04:36:33;;;;;;;5.43;3.67;;;;;;;;;;5071041;28;20241;-60
2023/07/26 04:39:00;;;;;;;4.93;3.53;;;;;;;;;;5071120;28;20195;-59
2023/07/26 04:41:26;;;;;;;4.97;3.63;;;;;;;;;;5071129;28;20533;-59
2023/07/26 04:43:52;;;;;;;4.40;3.83;;;;;;;;;;5069385;28;20246;-60
2023/07/26 04:46:19;;;;;;;4.43;3.73;;;;;;;;;;5071060;28;20211;-59
2023/07/26 04:48:45;;;;;;;4.17;3.70;;;;;;;;;;5071099;28;20578;-60
2023/07/26 04:51:11;;;;;;;5.60;4.07;;;;;;;;;;5070850;28;20232;-60
2023/07/26 04:53:37;;;;;;;3.63;3.33;;;;;;;;;;5070955;28;20242;-59
2023/07/26 04:56:04;;;;;;;6.33;3.67;;;;;;;;;;5071530;28;20219;-59
2023/07/26 04:58:30;;;;;;;5.83;3.30;;;;;;;;;;5074570;28;20196;-58
2023/07/26 05:00:56;;;;;;;5.10;4.00;;;;;;;;;;5074193;28;20199;-59
2023/07/26 05:03:23;;;;;;;6.57;3.97;;;;;;;;;;5074269;28;20196;-57
2023/07/26 05:05:52;;;;;;;4.13;3.60;;;;;;;;;;5074359;28;20219;-59
2023/07/26 05:08:20;;;;;;;5.63;3.80;;;;;;;;;;5074233;28;20199;-60
2023/07/26 05:10:48;;;;;;;3.70;3.30;;;;;;;;;;5074243;28;20228;-60
2023/07/26 05:13:14;;;;;;;5.27;3.67;;;;;;;;;;5074128;28;20274;-59
2023/07/26 05:15:40;;;;;;;5.03;3.53;;;;;;;;;;5074175;28;20750;-59
2023/07/26 05:18:06;;;;;;;5.17;3.63;;;;;;;;;;5074093;28;20294;-59
2023/07/26 05:20:33;;;;;;;4.50;3.60;;;;;;;;;;5073844;28;20191;-59
2023/07/26 05:22:59;;;;;;;4.17;3.57;;;;;;;;;;5073982;28;20684;-59
2023/07/26 05:25:26;;;;;;;4.57;3.83;;;;;;;;;;5074014;28;20290;-59
2023/07/26 05:27:53;;;;;;;6.23;3.93;;;;;;;;;;5074041;28;20246;-59
2023/07/26 05:30:19;;;;;;;4.13;3.60;;;;;;;;;;5073729;28;20220;-59
2023/07/26 05:32:45;;;;;;;3.97;3.47;;;;;;;;;;5073674;28;20654;-58
2023/07/26 05:35:12;;;;;;;5.93;3.70;;;;;;;;;;5074135;28;20203;-58
2023/07/26 05:37:39;;;;;;;4.73;3.60;;;;;;;;;;5073843;28;20226;-58
2023/07/26 05:40:06;;;;;;;5.63;3.60;;;;;;;;;;5073728;28;20618;-59
2023/07/26 05:42:32;;;;;;;4.23;3.67;;;;;;;;;;5073426;28;20532;-57
2023/07/26 05:44:58;;;;;;;4.07;3.30;;;;;;;;;;5073681;28;20199;-59
2023/07/26 05:47:24;;;;;;;4.70;3.60;;;;;;;;;;5072277;28;20200;-59
2023/07/26 05:49:50;;;;;;;3.83;3.00;;;;;;;;;;5073408;28;20201;-60
2023/07/26 05:52:16;;;;;;;7.27;3.80;;;;;;;;;;5073226;28;20227;-59
2023/07/26 05:54:44;;;;;;;3.80;3.40;;;;;;;;;;5073327;28;20557;-59
2023/07/26 05:57:10;;;;;;;3.73;3.33;;;;;;;;;;5073477;28;20298;-58
2023/07/26 05:59:36;;;;;;;3.70;3.33;;;;;;;;;;5073235;28;20218;-59
2023/07/26 06:02:02;;;;;;;3.97;3.20;;;;;;;;;;5073267;28;20195;-59
2023/07/26 06:04:29;;;;;;;3.93;2.90;;;;;;;;;;5072973;28;20199;-59
2023/07/26 06:06:55;;;;;;;4.00;3.40;;;;;;;;;;5072992;28;20708;-60
2023/07/26 06:09:21;;;;;;;4.67;3.80;;;;;;;;;;5072969;28;20261;-59
2023/07/26 06:11:49;;;;;;;5.70;3.30;;;;;;;;;;5072970;28;20315;-60
2023/07/26 06:14:15;;;;;;;3.20;2.90;;;;;;;;;;5072954;28;20242;-59
2023/07/26 06:16:41;;;;;;;3.40;2.67;;;;;;;;;;5072732;28;20195;-59
2023/07/26 06:19:07;;;;;;;6.87;3.33;;;;;;;;;;5073115;28;20627;-60
2023/07/26 06:21:33;;;;;;;4.57;3.27;;;;;;;;;;5073148;28;20195;-60
2023/07/26 06:23:59;;;;;;;3.83;2.90;;;;;;;;;;5072879;28;20202;-60
2023/07/26 06:26:25;;;;;;;4.23;3.23;;;;;;;;;;5072821;28;20200;-60
2023/07/26 06:28:53;;;;;;;4.93;3.30;;;;;;;;;;5072878;28;20250;-60
2023/07/26 06:31:19;;;;;;;4.63;2.90;;;;;;;;;;5072518;28;20573;-60
2023/07/26 06:33:45;;;;;;;4.60;2.90;;;;;;;;;;5072454;28;20286;-61
2023/07/26 06:36:11;;;;;;;5.30;3.07;;;;;;;;;;5072797;28;20286;-61
2023/07/26 06:38:37;;;;;;;6.57;3.10;;;;;;;;;;5072568;28;20249;-60
2023/07/26 06:41:04;;;;;;;4.27;2.83;;;;;;;;;;5072706;28;20196;-61
2023/07/26 06:43:30;;;;;;;4.10;3.10;;;;;;;;;;5072199;28;20263;-59
2023/07/26 06:45:57;;;;;;;4.50;3.00;;;;;;;;;;5072407;28;20202;-61
2023/07/26 06:48:23;;;;;;;9.67;3.67;;;;;;;;;;5072349;28;20547;-61
2023/07/26 06:50:49;;;;;;;3.60;3.30;;;;;;;;;;5072632;28;20223;-61
2023/07/26 06:53:15;;;;;;;5.00;3.23;;;;;;;;;;5072182;28;20200;-60
2023/07/26 06:55:42;;;;;;;5.40;3.07;;;;;;;;;;5072367;28;20219;-60
2023/07/26 06:58:08;;;;;;;3.47;2.93;;;;;;;;;;5072026;28;20206;-59
2023/07/26 07:00:35;;;;;;;4.03;2.83;;;;;;;;;;5071751;28;20191;-60
2023/07/26 07:03:03;;;;;;;3.60;3.30;;;;;;;;;;5071920;28;20222;-61
2023/07/26 07:05:30;;;;;;;4.13;3.10;;;;;;;;;;5071689;28;20248;-61
2023/07/26 07:07:57;;;;;;;3.70;3.13;;;;;;;;;;5071909;28;20605;-60
2023/07/26 07:10:23;;;;;;;6.60;3.00;;;;;;;;;;5071701;28;20263;-61
2023/07/26 07:12:49;;;;;;;3.30;3.00;;;;;;;;;;5071975;28;20655;-61
2023/07/26 07:15:15;;;;;;;3.87;3.27;;;;;;;;;;5071879;28;20298;-60
2023/07/26 07:17:41;;;;;;;5.23;3.30;;;;;;;;;;5072021;28;20223;-60
2023/07/26 07:20:09;;;;;;;4.17;3.40;;;;;;;;;;5071374;28;20560;-61
2023/07/26 07:22:35;;;;;;;3.57;3.00;;;;;;;;;;5071845;28;20204;-60
2023/07/26 07:25:01;;;;;;;3.87;2.57;;;;;;;;;;5071939;28;20214;-59
2023/07/26 07:27:27;;;;;;;4.17;2.97;;;;;;;;;;5071751;28;20242;-60
2023/07/26 07:29:53;;;;;;;3.43;2.77;;;;;;;;;;5071920;28;20199;-60
2023/07/26 07:32:20;;;;;;;4.23;2.57;;;;;;;;;;5071476;28;20306;-60
2023/07/26 07:34:46;;;;;;;3.07;2.57;;;;;;;;;;5071762;28;20198;-60
2023/07/26 07:37:13;;;;;;;3.57;2.70;;;;;;;;;;5071798;28;20556;-61
2023/07/26 07:39:39;;;;;;;2.80;2.30;;;;;;;;;;5071723;28;20625;-59
2023/07/26 07:42:06;;;;;;;3.30;2.50;;;;;;;;;;5071623;28;20223;-65
2023/07/26 07:44:32;;;;;;;4.17;2.57;;;;;;;;;;5071337;28;20884;-63
2023/07/26 07:46:58;;;;;;;3.30;2.47;;;;;;;;;;5071445;28;20662;-60
2023/07/26 07:49:24;;;;;;;3.80;2.23;;;;;;;;;;5071566;28;20196;-61
2023/07/26 07:51:50;;;;;;;2.57;2.10;;;;;;;;;;5071440;28;20562;-73
2023/07/26 07:54:17;;;;;;;3.57;2.13;;;;;;;;;;5071505;28;20235;-64
2023/07/26 07:56:45;;;;;;;3.40;2.00;;;;;;;;;;5071392;28;20204;-55
2023/07/26 07:59:11;;;;;;;3.50;2.33;;;;;;;;;;5071575;28;20216;-62
2023/07/26 08:01:37;;;;;;;3.00;1.90;;;;;;;;;;5071315;28;20654;-59
2023/07/26 08:04:03;;;;;;;4.23;2.20;;;;;;;;;;5071477;28;20203;-59
2023/07/26 08:06:30;;;;;;;3.03;1.80;;;;;;;;;;5071522;28;20219;-58
2023/07/26 08:08:56;;;;;;;2.27;1.70;;;;;;;;;;5071760;28;20200;-60
2023/07/26 08:11:23;;;;;;;2.13;1.70;;;;;;;;;;5071482;28;20640;-61
2023/07/26 08:13:49;;;;;;;2.63;1.93;;;;;;;;;;5071441;28;20701;-60
2023/07/26 08:16:15;;;;;;;5.17;2.23;;;;;;;;;;5071320;28;20228;-59
2023/07/26 08:18:42;;;;;;;3.27;2.10;;;;;;;;;;5071475;28;20192;-60
2023/07/26 08:21:08;;;;;;;4.27;2.10;;;;;;;;;;5071655;28;20194;-60
2023/07/26 08:23:34;;;;;;;3.63;1.87;;;;;;;;;;5071450;28;20204;-60
2023/07/26 08:26:03;;;;;;;2.93;1.90;;;;;;;;;;5071406;28;20193;-60
2023/07/26 08:28:30;;;;;;;4.13;2.20;;;;;;;;;;5071296;28;20204;-60
2023/07/26 08:30:56;;;;;;;3.40;2.27;;;;;;;;;;5069866;28;20328;-60
2023/07/26 08:33:22;;;;;;;2.73;2.00;;;;;;;;;;5074823;28;20196;-60
2023/07/26 08:35:48;;;;;;;2.17;1.93;;;;;;;;;;5074694;28;20197;-59
2023/07/26 08:38:14;;;;;;;2.27;1.80;;;;;;;;;;5074687;28;20191;-59
2023/07/26 08:40:42;;;;;;;5.30;1.90;;;;;;;;;;5074571;28;20274;-59
2023/07/26 08:43:09;;;;;;;2.77;2.03;;;;;;;;;;5074563;28;20727;-59
2023/07/26 08:45:37;;;;;;;3.93;2.03;;;;;;;;;;5074394;28;20201;-59
2023/07/26 08:48:03;;;;;;;3.17;1.83;;;;;;;;;;5074556;28;20212;-60
2023/07/26 08:50:29;;;;;;;3.20;1.80;;;;;;;;;;5074356;28;20201;-60
2023/07/26 08:52:55;;;;;;;2.37;1.60;;;;;;;;;;5074582;28;20239;-60
2023/07/26 08:55:21;;;;;;;3.43;1.73;;;;;;;;;;5074465;28;20201;-60
2023/07/26 08:57:48;;;;;;;3.10;1.70;;;;;;;;;;5074378;28;20263;-60
2023/07/26 09:00:14;;;;;;;2.07;1.77;;;;;;;;;;5074165;28;20217;-60
2023/07/26 09:02:45;;;;;;;3.50;2.00;;;;;;;;;;5074235;28;20649;-60
2023/07/26 09:05:11;;;;;;;1.77;1.57;;;;;;;;;;5074310;28;20230;-59
2023/07/26 09:07:37;;;;;;;1.90;1.60;;;;;;;;;;5074077;28;20209;-60
2023/07/26 09:10:04;;;;;;;2.10;1.90;;;;;;;;;;5074550;28;20207;-57
2023/07/26 09:12:30;;;;;;;3.50;2.20;;;;;;;;;;5074331;28;20230;-58
2023/07/26 09:14:57;;;;;;;2.27;1.90;;;;;;;;;;5074668;28;20212;-58
2023/07/26 09:17:35;;;;;;;2.70;1.70;;;;;;;;;;5074364;28;20205;-58
2023/07/26 09:20:03;;;;;;;2.13;1.67;;;;;;;;;;5074343;28;20197;-58
2023/07/26 09:22:30;;;;;;;1.70;1.47;;;;;;;;;;5074306;28;20207;-58
2023/07/26 09:24:56;;;;;;;1.70;1.60;;;;;;;;;;5074340;28;20251;-59
2023/07/26 09:27:22;;;;;;;1.93;1.73;;;;;;;;;;5074435;28;20229;-59
2023/07/26 09:29:54;;;;;;;2.30;1.80;;;;;;;;;;5074147;28;20240;-58
2023/07/26 09:32:26;;;;;;;2.80;1.93;;;;;;;;;;5074093;28;20231;-58
2023/07/26 09:34:52;;;;;;;2.37;1.90;;;;;;;;;;5073924;28;20202;-59
2023/07/26 09:37:22;;;;;;;2.23;1.80;;;;;;;;;;5074046;28;20194;-59
2023/07/26 09:39:48;;;;;;;4.00;2.00;;;;;;;;;;5073945;28;20618;-59
2023/07/26 09:42:14;;;;;;;2.53;1.70;;;;;;;;;;5073390;28;20198;-59
2023/07/26 09:44:45;;;;;;;1.90;1.70;;;;;;;;;;5073582;28;20594;-59
2023/07/26 09:47:11;;;;;;;2.30;2.10;;;;;;;;;;5073896;28;20258;-60
2023/07/26 09:49:48;;;;;;;3.60;2.10;;;;;;;;;;5073726;28;20195;-60
2023/07/26 09:52:16;;;;;;;3.10;1.80;;;;;;;;;;5073771;28;20277;-60
2023/07/26 09:54:43;;;;;;;2.17;1.60;;;;;;;;;;5073754;28;20199;-61
2023/07/26 09:57:09;;;;;;;2.20;1.60;;;;;;;;;;5073580;28;20619;-60
2023/07/26 09:59:37;;;;;;;2.37;1.43;;;;;;;;;;5073686;28;20229;-59
2023/07/26 10:02:06;;;;;;;1.37;1.27;;;;;;;;;;5073588;28;20296;-61
2023/07/26 10:04:34;;;;;;;1.33;1.23;;;;;;;;;;5073323;28;20618;-60
2023/07/26 10:07:01;;;;;;;1.97;1.70;;;;;;;;;;5073515;28;20216;-60
2023/07/26 10:09:28;;;;;;;1.80;1.50;;;;;;;;;;5073460;28;20238;-61
2023/07/26 10:11:55;;;;;;;2.03;1.87;;;;;;;;;;5073448;28;20318;-59
2023/07/26 10:14:21;;;;;;;2.00;1.80;;;;;;;;;;5073230;28;20685;-59
2023/07/26 10:16:48;;;;;;;1.97;1.80;;;;;;;;;;5073242;28;20280;-60
2023/07/26 10:19:14;;;;;;;2.10;1.90;;;;;;;;;;5072030;28;20215;-59
2023/07/26 10:21:41;;;;;;;2.23;2.00;;;;;;;;;;5073130;28;20203;-59
2023/07/26 10:24:08;;;;;;;2.27;1.77;;;;;;;;;;5073265;28;20195;-60
2023/07/26 10:26:36;;;;;;;2.50;2.03;;;;;;;;;;5072902;28;20688;-60
2023/07/26 10:29:03;;;;;;;2.90;2.03;;;;;;;;;;5073026;28;20415;-59
2023/07/26 10:31:29;;;;;;;2.60;1.93;;;;;;;;;;5072725;28;20223;-60
2023/07/26 10:33:56;;;;;;;2.80;1.87;;;;;;;;;;5072873;28;20213;-60
2023/07/26 10:36:28;;;;;;;1.97;1.73;;;;;;;;;;5072886;28;20248;-60
2023/07/26 10:38:54;;;;;;;2.47;1.53;;;;;;;;;;5073004;28;20223;-60
2023/07/26 10:41:27;;;;;;;1.37;1.27;;;;;;;;;;5072657;28;20230;-59
2023/07/26 10:44:05;;;;;;;1.10;1.00;;;;;;;;;;5072656;28;20569;-58
2023/07/26 10:46:36;;;;;;;1.77;1.37;;;;;;;;;;5072577;28;20197;-58
2023/07/26 10:49:16;;;;;;;2.47;1.70;;;;;;;;;;5072706;28;20875;-58
2023/07/26 10:51:49;;;;;;;1.40;1.30;;;;;;;;;;5072359;28;20695;-58
2023/07/26 10:54:31;;;;;;;1.67;1.53;;;;;;;;;;5071831;28;20199;-59
2023/07/26 10:57:10;;;;;;;2.30;1.60;;;;;;;;;;5072539;28;20195;-59
2023/07/26 10:59:49;;;;;;;2.27;1.70;;;;;;;;;;5072312;28;20199;-58
2023/07/26 11:02:15;;;;;;;1.77;1.47;;;;;;;;;;5072395;28;20652;-58
2023/07/26 11:04:44;;;;;;;4.07;1.70;;;;;;;;;;5072291;28;20199;-58
2023/07/26 11:07:11;;;;;;;2.43;1.73;;;;;;;;;;5072489;28;20211;-59
2023/07/26 11:09:37;;;;;;;2.60;2.00;;;;;;;;;;5072143;28;20253;-59
2023/07/26 11:12:04;;;;;;;3.20;1.80;;;;;;;;;;5072116;28;20557;-59
2023/07/26 11:14:30;;;;;;;1.90;1.80;;;;;;;;;;5072209;28;20290;-59
2023/07/26 11:17:01;;;;;;;2.67;1.80;;;;;;;;;;5072280;28;20215;-59
2023/07/26 11:19:28;;;;;;;3.77;1.97;;;;;;;;;;5072145;28;20650;-59
2023/07/26 11:22:02;;;;;;;3.70;1.90;;;;;;;;;;5072254;28;20266;-59
2023/07/26 11:24:28;;;;;;;3.47;1.80;;;;;;;;;;5072085;28;20244;-59
2023/07/26 11:26:54;;;;;;;1.70;1.53;;;;;;;;;;5072199;28;20291;-60
2023/07/26 11:29:21;;;;;;;2.27;1.87;;;;;;;;;;5072008;28;20200;-60
2023/07/26 11:31:48;;;;;;;2.03;1.83;;;;;;;;;;5071757;28;20918;-60
2023/07/26 11:34:16;;;;;;;1.80;1.70;;;;;;;;;;5071988;28;20199;-60
2023/07/26 11:36:43;;;;;;;1.97;1.80;;;;;;;;;;5071897;28;20612;-60
2023/07/26 11:39:18;;;;;;;2.77;2.10;;;;;;;;;;5072115;28;20197;-59
2023/07/26 11:41:44;;;;;;;2.20;2.00;;;;;;;;;;5071998;28;20191;-58
2023/07/26 11:44:10;;;;;;;2.17;1.93;;;;;;;;;;5071822;28;20259;-58
2023/07/26 11:46:36;;;;;;;2.10;1.90;;;;;;;;;;5071811;28;20209;-58
2023/07/26 11:49:02;;;;;;;2.47;2.20;;;;;;;;;;5071823;28;20195;-58
2023/07/26 11:51:32;;;;;;;2.97;2.10;;;;;;;;;;5071688;28;20215;-59
2023/07/26 11:53:58;;;;;;;3.10;2.37;;;;;;;;;;5071384;28;20834;-59
2023/07/26 11:56:30;;;;;;;4.23;2.10;;;;;;;;;;5071639;28;20241;-59
2023/07/26 11:58:57;;;;;;;2.13;1.90;;;;;;;;;;5071644;28;20281;-59
2023/07/26 12:01:24;;;;;;;2.10;1.90;;;;;;;;;;5071704;28;20199;-59
2023/07/26 12:03:51;;;;;;;2.53;1.80;;;;;;;;;;5067757;28;20700;-60
2023/07/26 12:06:17;;;;;;;2.87;2.20;;;;;;;;;;5073676;28;20229;-60
2023/07/26 12:08:44;;;;;;;2.40;2.00;;;;;;;;;;5075090;28;20205;-60
2023/07/26 12:11:10;;;;;;;1.97;1.80;;;;;;;;;;5075364;28;20215;-60
2023/07/26 12:13:37;;;;;;;2.77;2.40;;;;;;;;;;5075175;28;20269;-60
2023/07/26 12:16:03;;;;;;;3.50;2.10;;;;;;;;;;5074980;28;20615;-60
2023/07/26 12:18:29;;;;;;;3.40;2.10;;;;;;;;;;5074953;28;20755;-60
2023/07/26 12:20:56;;;;;;;2.87;2.10;;;;;;;;;;5075273;28;20192;-60
2023/07/26 12:23:22;;;;;;;3.97;2.20;;;;;;;;;;5075071;28;20199;-60
2023/07/26 12:25:52;;;;;;;2.37;2.00;;;;;;;;;;5074995;28;20199;-60
2023/07/26 12:28:18;;;;;;;4.13;2.33;;;;;;;;;;5075046;28;20199;-60
2023/07/26 12:30:51;;;;;;;2.87;2.17;;;;;;;;;;5075010;28;20199;-60
2023/07/26 12:33:17;;;;;;;2.30;2.10;;;;;;;;;;5075270;28;20249;-58
2023/07/26 12:35:46;;;;;;;2.10;1.90;;;;;;;;;;5069995;28;20682;-60
2023/07/26 12:38:13;;;;;;;2.30;2.10;;;;;;;;;;5065646;28;20572;-59
2023/07/26 12:40:40;;;;;;;2.80;2.17;;;;;;;;;;5062223;28;20211;-61
2023/07/26 12:43:27;;;;;;;2.30;1.80;;;;;;;;;;5062302;28;20317;-60
2023/07/26 12:45:53;;;;;;;2.10;2.00;;;;;;;;;;5065415;28;20279;-61
2023/07/26 12:48:19;;;;;;;3.87;2.37;;;;;;;;;;5063994;28;20619;-60
2023/07/26 12:50:46;;;;;;;2.63;2.30;;;;;;;;;;5062511;28;20286;-60
2023/07/26 12:53:13;;;;;;;2.90;2.07;;;;;;;;;;5063979;28;20191;-60
2023/07/26 12:55:39;;;;;;;2.40;2.20;;;;;;;;;;5063714;28;20196;-59
2023/07/26 12:58:05;;;;;;;2.50;2.10;;;;;;;;;;5063936;28;20228;-60
2023/07/26 13:00:33;;;;;;;2.33;2.13;;;;;;;;;;5064916;28;20200;-61
2023/07/26 13:02:59;;;;;;;2.93;2.00;;;;;;;;;;5063642;28;20192;-60
2023/07/26 13:05:25;;;;;;;2.90;2.10;;;;;;;;;;5063767;28;20215;-59
2023/07/26 13:07:52;;;;;;;2.23;1.87;;;;;;;;;;5065168;28;20253;-61
2023/07/26 13:10:18;;;;;;;2.17;1.97;;;;;;;;;;5063321;28;20840;-61
2023/07/26 13:12:44;;;;;;;2.00;1.70;;;;;;;;;;5063734;28;20216;-59
2023/07/26 13:15:10;;;;;;;3.50;2.10;;;;;;;;;;5064906;28;20216;-60
2023/07/26 13:17:37;;;;;;;2.23;2.00;;;;;;;;;;5060105;28;20231;-61
2023/07/26 13:20:04;;;;;;;1.90;1.70;;;;;;;;;;5063883;28;20201;-60
2023/07/26 13:22:31;;;;;;;3.10;2.23;;;;;;;;;;5062678;28;20576;-60
2023/07/26 13:24:57;;;;;;;2.10;1.90;;;;;;;;;;5064576;28;20189;-59
2023/07/26 13:27:23;;;;;;;2.97;2.13;;;;;;;;;;5063657;28;20670;-58
2023/07/26 13:29:49;;;;;;;4.37;2.20;;;;;;;;;;5062783;28;20697;-59
2023/07/26 13:32:15;;;;;;;2.73;1.83;;;;;;;;;;5064474;28;20251;-60
2023/07/26 13:34:42;;;;;;;2.20;2.00;;;;;;;;;;5063199;28;20231;-60
2023/07/26 13:37:08;;;;;;;2.30;1.90;;;;;;;;;;5062879;28;20685;-60
2023/07/26 13:39:34;;;;;;;1.97;1.77;;;;;;;;;;5064454;28;20673;-60
2023/07/26 13:42:00;;;;;;;1.80;1.60;;;;;;;;;;5063213;28;20185;-61
2023/07/26 13:44:27;;;;;;;2.20;1.60;;;;;;;;;;5062812;28;20231;-61
2023/07/26 13:46:53;;;;;;;2.13;1.70;;;;;;;;;;5064262;28;20658;-60
2023/07/26 13:49:22;;;;;;;1.63;1.50;;;;;;;;;;5062526;28;20195;-59
2023/07/26 13:51:49;;;;;;;1.87;1.70;;;;;;;;;;5057263;28;20250;-60
2023/07/26 13:54:15;;;;;;;2.70;1.50;;;;;;;;;;5053754;28;20200;-60
2023/07/26 13:56:41;;;;;;;2.13;1.40;;;;;;;;;;5053744;28;20275;-60
2023/07/26 13:59:07;;;;;;;1.70;1.40;;;;;;;;;;5053765;28;20200;-60
2023/07/26 14:01:34;;;;;;;2.77;1.40;;;;;;;;;;5053453;28;20207;-60
2023/07/26 14:04:00;;;;;;;1.87;1.47;;;;;;;;;;5053724;28;20208;-60
2023/07/26 14:06:27;;;;;;;1.33;1.23;;;;;;;;;;5053385;28;20224;-60
2023/07/26 14:08:55;;;;;;;1.40;1.30;;;;;;;;;;5053481;28;20712;-60
2023/07/26 14:11:21;;;;;;;1.80;1.50;;;;;;;;;;5053392;28;20687;-60
2023/07/26 14:13:47;;;;;;;1.50;1.30;;;;;;;;;;5053305;28;20204;-60
2023/07/26 14:16:13;;;;;;;3.30;1.30;;;;;;;;;;5053199;28;20198;-60
2023/07/26 14:18:39;;;;;;;1.60;1.50;;;;;;;;;;5053233;28;20203;-59
2023/07/26 14:21:05;;;;;;;1.93;1.50;;;;;;;;;;5053358;28;20197;-60
2023/07/26 14:23:32;;;;;;;1.30;1.20;;;;;;;;;;5053155;28;20316;-61
2023/07/26 14:26:00;;;;;;;1.80;1.40;;;;;;;;;;5053111;28;20668;-60
2023/07/26 14:28:26;;;;;;;1.50;1.40;;;;;;;;;;5053077;28;20211;-60
2023/07/26 14:30:53;;;;;;;2.10;1.30;;;;;;;;;;5052861;28;20208;-60
2023/07/26 14:33:19;;;;;;;1.80;1.37;;;;;;;;;;5052929;28;20196;-60
2023/07/26 14:35:45;;;;;;;2.20;1.40;;;;;;;;;;5052846;28;20192;-58
2023/07/26 14:38:11;;;;;;;1.57;1.47;;;;;;;;;;5052928;28;20247;-58
2023/07/26 14:40:37;;;;;;;1.47;1.37;;;;;;;;;;5053090;28;20212;-58